Time;durP1;ratioP1;P1;durP2;ratioP2;P2;SDS_P1;SDS_P2;PMS_P1;PMS_P2;Temp;Humidity;BMP_temperature;BMP_pressure;BME280_temperature;BME280_humidity;BME280_pressure;Samples;Min_cycle;Max_cycle;Signal;HPM_P1;HPM_P2
2021/12/24 00:01:16;;;;;;;29.70;17.30;;;;;;;1.55;60.62;97784.02;218589;1297;139110;-58
2021/12/24 00:06:20;;;;;;;29.90;16.80;;;;;;;1.49;60.88;97782.77;217845;1297;138904;-61
2021/12/24 00:11:23;;;;;;;28.50;15.80;;;;;;;1.38;61.22;97770.34;218603;1297;139279;-58
2021/12/24 00:16:36;;;;;;;31.20;16.90;;;;;;;1.24;61.55;97764.34;218348;1297;139338;-59
2021/12/24 00:37:44;;;;;;;30.70;15.50;;;;;;;1.11;63.30;97734.68;217931;1297;139794;-56
2021/12/24 00:42:53;;;;;;;24.30;12.60;;;;;;;1.07;63.57;97729.11;217523;1301;140001;-58
2021/12/24 00:47:59;;;;;;;27.30;14.60;;;;;;;1.02;63.90;97705.05;217910;1297;139145;-58
2021/12/24 00:55:01;;;;;;;28.20;15.30;;;;;;;1.02;64.27;97701.41;219246;1296;139433;-57
2021/12/24 00:58:25;;;;;;;26.00;14.70;;;;;;;1.00;64.58;97684.53;218057;1297;139131;-59
2021/12/24 01:03:28;;;;;;;26.50;14.50;;;;;;;1.02;64.88;97673.11;217963;1297;138960;-59
2021/12/24 01:08:32;;;;;;;22.80;14.20;;;;;;;1.00;65.04;97666.21;218142;1297;139151;-59
2021/12/24 01:13:35;;;;;;;27.00;14.90;;;;;;;0.99;65.19;97654.89;218513;1297;139662;-59
2021/12/24 01:18:50;;;;;;;20.40;11.60;;;;;;;1.04;65.46;97652.40;218436;1297;140074;-59
2021/12/24 01:23:59;;;;;;;22.30;13.80;;;;;;;1.05;65.54;97642.93;217902;1299;139998;-59
2021/12/24 01:44:54;;;;;;;20.90;11.90;;;;;;;0.98;66.49;97603.64;217752;1297;139073;-58
2021/12/24 01:49:57;;;;;;;17.10;11.40;;;;;;;0.97;66.77;97593.17;217384;1305;139217;-60
2021/12/24 01:55:01;;;;;;;18.20;11.10;;;;;;;0.98;66.84;97582.32;217448;1304;138898;-62
2021/12/24 02:00:06;;;;;;;17.80;11.10;;;;;;;0.97;67.23;97571.02;218636;1297;138695;-59
2021/12/24 02:05:16;;;;;;;15.20;9.60;;;;;;;0.95;67.47;97569.52;217998;1297;138818;-60
2021/12/24 02:10:20;;;;;;;14.30;8.80;;;;;;;1.04;67.53;97563.35;217666;1299;139654;-60
2021/12/24 02:31:24;;;;;;;14.90;7.20;;;;;;;0.98;68.24;97527.98;218206;1297;139722;-60
2021/12/24 02:36:28;;;;;;;12.30;7.90;;;;;;;1.02;68.38;97521.70;217551;1297;138788;-59
2021/12/24 02:41:31;;;;;;;16.40;8.80;;;;;;;1.05;68.36;97518.73;218781;1297;138565;-58
2021/12/24 02:46:43;;;;;;;12.40;8.00;;;;;;;1.08;68.67;97507.25;217624;1299;138718;-58
2021/12/24 02:57:21;;;;;;;14.60;8.50;;;;;;;1.08;68.88;97490.70;217629;1303;139200;-59
2021/12/24 03:02:24;;;;;;;;;;;;;;;1.14;68.95;97487.21;218377;1296;140894;-58
2021/12/24 03:07:27;;;;;;;11.70;7.90;;;;;;;1.18;69.26;97483.52;218471;1296;126471;-62
2021/12/24 03:12:31;;;;;;;12.30;7.20;;;;;;;1.22;69.29;97474.30;217584;1299;138700;-61
2021/12/24 03:17:34;;;;;;;14.40;8.40;;;;;;;1.24;69.37;97470.36;218230;1297;139004;-58
2021/12/24 03:22:48;;;;;;;10.80;7.00;;;;;;;1.22;69.52;97469.73;217756;1297;138985;-61
2021/12/24 03:27:52;;;;;;;11.00;8.10;;;;;;;1.22;69.59;97461.34;217856;1297;139795;-62
2021/12/24 03:32:55;;;;;;;14.50;7.70;;;;;;;1.23;69.80;97462.68;218194;1297;139337;-62
2021/12/24 03:37:59;;;;;;;11.70;7.30;;;;;;;1.25;69.98;97463.98;218539;1297;138279;-56
2021/12/24 03:43:02;;;;;;;9.50;6.60;;;;;;;1.30;70.14;97453.27;218838;1296;139122;-57
2021/12/24 03:48:15;;;;;;;11.00;7.80;;;;;;;1.33;70.20;97448.93;218245;1296;139053;-57
2021/12/24 03:58:40;;;;;;;10.90;6.80;;;;;;;1.36;70.42;97433.70;217560;1297;139164;-58
2021/12/24 04:04:02;;;;;;;14.90;8.20;;;;;;;1.37;70.49;97435.45;217646;1299;139389;-59
2021/12/24 04:10:01;;;;;;;11.80;8.00;;;;;;;1.35;70.54;97444.98;217076;1302;138635;-58
2021/12/24 04:15:43;;;;;;;10.90;7.60;;;;;;;1.34;70.67;97435.78;217090;1301;139268;-58
2021/12/24 04:26:09;;;;;;;13.00;7.80;;;;;;;1.30;70.98;97421.66;218562;1297;138824;-59
2021/12/24 04:31:13;;;;;;;12.90;7.80;;;;;;;1.36;71.24;97431.98;217475;1300;140246;-58
2021/12/24 04:52:16;;;;;;;9.30;6.10;;;;;;;1.50;71.31;97417.11;218126;1297;139269;-59
2021/12/24 05:02:52;;;;;;;14.40;8.50;;;;;;;1.70;71.60;97400.02;217488;1301;139684;-61
2021/12/24 05:08:22;;;;;;;9.60;6.40;;;;;;;1.66;71.33;97403.90;218272;1297;139226;-58
2021/12/24 05:13:22;;;;;;;13.70;8.30;;;;;;;1.61;71.31;97404.81;217735;1297;138860;-57
2021/12/24 05:21:32;;;;;;;11.60;8.00;;;;;;;1.60;71.43;97402.79;217406;1299;140272;-60
2021/12/24 05:24:32;;;;;;;11.90;8.10;;;;;;;1.61;71.66;97403.23;218667;1297;139521;-61
2021/12/24 05:29:37;;;;;;;14.40;9.10;;;;;;;1.66;71.87;97401.58;217554;1299;138595;-57
2021/12/24 05:34:40;;;;;;;12.20;8.20;;;;;;;1.79;71.71;97398.29;218064;1297;139535;-56
2021/12/24 05:39:43;;;;;;;13.60;8.50;;;;;;;1.75;71.54;97392.91;218243;1297;139598;-59
2021/12/24 05:44:46;;;;;;;19.30;12.70;;;;;;;1.72;71.80;97383.47;217539;1297;139025;-57
2021/12/24 05:50:07;;;;;;;14.00;8.50;;;;;;;1.81;71.91;97379.65;217750;1299;140376;-58
2021/12/24 05:55:33;;;;;;;13.80;8.90;;;;;;;1.83;71.65;97376.20;217640;1297;139133;-62
2021/12/24 06:00:48;;;;;;;15.20;8.80;;;;;;;1.84;71.77;97386.15;217437;1299;138577;-57
2021/12/24 06:05:51;;;;;;;;;;;;;;;1.81;71.81;97386.11;217406;1301;139086;-58
2021/12/24 06:10:55;;;;;;;10.70;7.30;;;;;;;1.78;71.80;97380.34;217616;1296;125121;-58
2021/12/24 06:15:59;;;;;;;13.10;7.70;;;;;;;1.77;71.95;97381.42;217989;1299;141142;-59
2021/12/24 06:21:03;;;;;;;11.80;7.90;;;;;;;1.77;72.12;97379.91;217981;1297;138939;-60
2021/12/24 06:26:07;;;;;;;135.10;73.00;;;;;;;1.78;72.26;97382.64;217574;1297;141680;-59
2021/12/24 06:31:10;;;;;;;12.50;7.20;;;;;;;1.93;72.60;97382.87;217763;1299;139206;-60
2021/12/24 06:36:14;;;;;;;10.50;7.10;;;;;;;1.95;72.20;97386.60;217754;1297;138891;-61
2021/12/24 06:41:17;;;;;;;13.70;7.50;;;;;;;1.99;72.23;97386.23;218128;1297;140211;-61
2021/12/24 06:46:20;;;;;;;10.70;7.10;;;;;;;2.08;72.14;97389.90;217665;1300;139218;-61
2021/12/24 06:51:27;;;;;;;13.70;8.40;;;;;;;2.16;72.17;97385.99;217429;1300;139511;-60
2021/12/24 06:56:30;;;;;;;14.50;8.30;;;;;;;2.20;72.30;97384.38;217977;1297;139262;-61
2021/12/24 07:01:34;;;;;;;11.30;7.90;;;;;;;2.25;72.30;97380.59;218002;1299;138922;-58
2021/12/24 07:06:43;;;;;;;12.60;7.50;;;;;;;2.37;72.26;97383.60;217749;1297;140359;-58
2021/12/24 07:11:48;;;;;;;12.90;8.00;;;;;;;2.50;72.23;97386.17;217602;1297;140068;-60
2021/12/24 07:16:51;;;;;;;13.00;8.20;;;;;;;2.60;72.17;97391.41;217971;1297;139195;-59
2021/12/24 07:21:54;;;;;;;15.60;8.80;;;;;;;2.65;72.18;97378.70;218218;1297;139165;-62
2021/12/24 07:26:57;;;;;;;13.70;8.90;;;;;;;2.68;72.33;97369.94;218191;1297;138435;-62
2021/12/24 07:32:00;;;;;;;14.10;8.90;;;;;;;2.71;72.23;97364.00;218103;1296;139508;-58
2021/12/24 07:37:03;;;;;;;19.50;9.70;;;;;;;2.79;72.48;97360.75;217991;1295;146316;-57
2021/12/24 07:42:07;;;;;;;18.20;9.60;;;;;;;2.88;72.59;97358.65;217872;1297;138876;-58
2021/12/24 07:47:16;;;;;;;18.20;10.30;;;;;;;2.89;72.47;97355.77;217512;1302;138942;-60
2021/12/24 07:52:21;;;;;;;15.00;10.00;;;;;;;2.93;72.52;97365.38;217646;1299;139697;-63
2021/12/24 07:57:24;;;;;;;17.50;10.70;;;;;;;3.05;72.97;97361.98;218303;1296;139596;-60
2021/12/24 08:02:28;;;;;;;18.40;11.00;;;;;;;3.22;72.94;97360.15;218465;1295;139208;-59
2021/12/24 08:07:32;;;;;;;17.20;10.10;;;;;;;3.22;72.74;97363.83;218403;1297;139590;-59
2021/12/24 08:12:35;;;;;;;18.60;11.50;;;;;;;3.24;72.60;97370.50;217780;1297;139232;-58
2021/12/24 08:17:38;;;;;;;20.00;10.90;;;;;;;3.35;72.86;97360.59;218562;1296;140004;-61
2021/12/24 08:22:42;;;;;;;22.30;11.50;;;;;;;3.47;72.98;97346.89;217707;1297;140737;-58
2021/12/24 08:27:45;;;;;;;19.70;11.40;;;;;;;3.61;73.17;97334.98;217801;1297;139122;-60
2021/12/24 08:32:48;;;;;;;17.40;11.30;;;;;;;3.73;73.21;97339.84;219200;1296;139080;-60
2021/12/24 08:37:51;;;;;;;19.50;11.40;;;;;;;3.84;73.40;97340.41;217602;1297;138441;-58
2021/12/24 08:42:54;;;;;;;17.20;10.80;;;;;;;3.97;73.45;97343.60;217555;1297;139585;-62
2021/12/24 08:47:57;;;;;;;16.60;10.70;;;;;;;4.10;73.30;97342.99;218387;1296;140200;-58
2021/12/24 08:53:00;;;;;;;18.20;11.60;;;;;;;4.21;73.07;97344.23;217600;1298;139381;-62
2021/12/24 08:58:03;;;;;;;19.70;10.70;;;;;;;4.30;73.05;97338.04;218132;1297;139218;-61
2021/12/24 09:03:07;;;;;;;52.70;34.10;;;;;;;4.34;73.24;97338.65;217735;1297;139330;-58
2021/12/24 09:08:10;;;;;;;18.80;11.30;;;;;;;4.46;73.16;97333.29;217906;1297;139373;-59
2021/12/24 09:13:13;;;;;;;20.80;10.30;;;;;;;4.52;73.03;97325.23;218253;1296;139382;-57
2021/12/24 09:18:18;;;;;;;67.20;37.20;;;;;;;4.56;72.92;97313.35;218128;1296;138716;-55
2021/12/24 09:23:22;;;;;;;19.70;11.00;;;;;;;4.76;73.79;97312.58;218566;1296;139838;-60
2021/12/24 09:28:45;;;;;;;26.80;16.50;;;;;;;4.83;72.74;97313.67;217478;1302;139967;-56
2021/12/24 09:33:48;;;;;;;16.80;10.90;;;;;;;4.83;72.88;97298.58;218668;1296;139435;-56
2021/12/24 09:38:53;;;;;;;14.30;9.00;;;;;;;4.88;72.89;97285.71;217578;1296;140337;-57
2021/12/24 09:43:59;;;;;;;15.50;9.70;;;;;;;4.94;73.00;97280.80;217602;1300;138959;-59
2021/12/24 09:49:03;;;;;;;160.00;78.40;;;;;;;4.98;73.11;97278.89;218254;1297;139364;-61
2021/12/24 09:54:16;;;;;;;17.80;11.60;;;;;;;5.09;73.25;97267.64;218328;1296;139766;-60
2021/12/24 09:59:20;;;;;;;19.10;11.00;;;;;;;5.17;72.97;97270.73;217855;1296;139407;-62
2021/12/24 10:04:27;;;;;;;14.70;9.30;;;;;;;5.21;72.74;97266.98;218338;1299;138524;-62
2021/12/24 10:09:36;;;;;;;19.00;10.90;;;;;;;5.24;72.73;97263.96;217739;1296;138959;-60
2021/12/24 10:14:46;;;;;;;15.80;9.70;;;;;;;5.29;72.66;97263.60;218540;1295;139209;-61
2021/12/24 10:19:53;;;;;;;15.20;9.20;;;;;;;5.39;72.95;97271.18;217642;1298;139674;-59
2021/12/24 10:25:13;;;;;;;19.40;12.20;;;;;;;5.51;73.07;97268.96;218887;1296;139638;-62
2021/12/24 10:30:18;;;;;;;16.70;10.40;;;;;;;5.63;72.96;97265.45;218085;1297;140287;-65
2021/12/24 10:35:27;;;;;;;15.00;8.70;;;;;;;5.65;73.07;97261.59;218087;1298;140040;-61
2021/12/24 10:40:30;;;;;;;16.10;9.50;;;;;;;5.70;72.85;97246.86;218111;1299;140262;-59
2021/12/24 10:45:35;;;;;;;15.50;8.90;;;;;;;5.72;72.73;97227.39;218073;1297;138991;-65
2021/12/24 10:50:48;;;;;;;17.50;9.30;;;;;;;5.75;72.76;97218.67;218503;1296;139631;-57
2021/12/24 10:55:54;;;;;;;13.50;8.80;;;;;;;5.86;73.02;97222.96;217528;1297;140144;-58
2021/12/24 11:00:59;;;;;;;16.30;9.20;;;;;;;5.99;72.93;97211.17;217763;1297;140329;-60
2021/12/24 11:06:07;;;;;;;15.00;9.30;;;;;;;6.12;73.15;97200.38;217980;1296;139689;-59
2021/12/24 11:11:17;;;;;;;15.50;9.10;;;;;;;6.22;73.11;97202.77;218783;1296;139246;-59
2021/12/24 11:16:22;;;;;;;16.80;10.30;;;;;;;6.34;73.05;97199.43;218207;1297;139182;-60
2021/12/24 11:21:27;;;;;;;14.80;9.20;;;;;;;6.49;73.06;97200.95;218117;1296;139565;-64
2021/12/24 11:26:34;;;;;;;13.70;9.10;;;;;;;6.55;72.79;97204.89;217681;1299;138739;-60
2021/12/24 11:31:38;;;;;;;15.50;8.80;;;;;;;6.52;72.42;97205.63;217842;1297;139573;-60
2021/12/24 11:36:41;;;;;;;13.40;9.10;;;;;;;6.51;72.67;97185.85;217849;1297;139730;-58
2021/12/24 11:41:44;;;;;;;18.50;8.70;;;;;;;6.51;72.53;97167.19;218505;1295;140827;-59
2021/12/24 11:46:49;;;;;;;14.10;7.70;;;;;;;6.51;72.60;97148.85;218215;1296;139466;-58
2021/12/24 11:51:52;;;;;;;102.20;53.30;;;;;;;6.59;72.98;97152.65;217734;1297;139352;-60
2021/12/24 11:56:56;;;;;;;16.30;9.50;;;;;;;6.85;73.27;97157.65;217514;1298;141677;-61
2021/12/24 12:01:59;;;;;;;18.30;9.70;;;;;;;6.90;73.04;97159.63;217737;1297;139321;-59
2021/12/24 12:07:16;;;;;;;16.20;9.50;;;;;;;6.91;72.49;97152.84;218620;1296;139242;-57
2021/12/24 12:12:32;;;;;;;16.40;8.80;;;;;;;6.89;72.57;97159.86;218280;1297;140623;-60
2021/12/24 12:17:50;;;;;;;14.30;8.20;;;;;;;6.85;72.58;97153.08;217706;1297;139747;-58
2021/12/24 12:22:57;;;;;;;13.40;8.00;;;;;;;6.77;72.45;97142.77;217679;1298;138715;-57
2021/12/24 12:28:07;;;;;;;18.00;8.20;;;;;;;6.78;72.61;97141.63;217763;1299;139869;-60
2021/12/24 12:33:11;;;;;;;17.40;9.90;;;;;;;6.80;72.65;97139.07;219198;1296;139766;-57
2021/12/24 12:38:38;;;;;;;13.60;8.30;;;;;;;6.76;72.63;97130.54;217875;1296;139228;-63
2021/12/24 12:43:42;;;;;;;37.80;22.90;;;;;;;6.77;72.57;97125.36;218119;1297;139893;-55
2021/12/24 12:48:49;;;;;;;18.20;10.60;;;;;;;6.87;73.05;97142.15;218090;1297;140140;-58
2021/12/24 12:53:54;;;;;;;15.90;9.20;;;;;;;6.93;72.49;97141.38;218204;1297;139332;-65
2021/12/24 12:59:03;;;;;;;15.50;7.90;;;;;;;6.89;72.41;97145.36;218172;1297;139087;-59
2021/12/24 13:04:06;;;;;;;14.80;9.00;;;;;;;6.83;72.32;97139.46;218469;1296;139847;-62
2021/12/24 13:09:12;;;;;;;15.60;8.50;;;;;;;6.82;72.53;97133.79;218263;1297;141150;-56
2021/12/24 13:14:17;;;;;;;15.00;8.20;;;;;;;6.79;72.34;97146.32;217407;1297;138764;-63
2021/12/24 13:24:31;;;;;;;15.30;9.20;;;;;;;6.94;73.04;97152.55;217876;1297;140259;-66
2021/12/24 13:29:34;;;;;;;12.80;7.00;;;;;;;7.05;72.96;97158.62;217530;1300;140665;-58
2021/12/24 13:34:38;;;;;;;10.20;5.80;;;;;;;7.08;73.05;97157.44;219077;1297;139442;-58
2021/12/24 13:39:48;;;;;;;13.10;6.70;;;;;;;7.10;73.11;97165.77;217517;1299;139399;-63
2021/12/24 13:45:01;;;;;;;10.70;6.30;;;;;;;7.15;73.12;97170.53;217796;1298;139316;-55
2021/12/24 13:55:18;;;;;;;9.70;5.80;;;;;;;7.25;73.37;97193.56;217826;1296;139052;-60
2021/12/24 14:00:23;;;;;;;13.00;6.10;;;;;;;7.26;73.09;97191.48;218856;1297;139289;-59
2021/12/24 14:05:27;;;;;;;10.60;5.90;;;;;;;7.31;73.19;97195.16;218095;1296;139179;-60
2021/12/24 14:10:30;;;;;;;12.60;6.10;;;;;;;7.35;73.18;97194.48;217703;1300;139731;-61
2021/12/24 14:15:46;;;;;;;11.00;5.80;;;;;;;7.39;73.30;97196.50;217450;1299;138924;-63
2021/12/24 14:21:44;;;;;;;194.40;119.40;;;;;;;7.44;73.16;97201.23;217535;1301;139271;-57
2021/12/24 14:26:21;;;;;;;15.10;8.00;;;;;;;7.58;73.61;97193.23;218033;1296;139558;-57
2021/12/24 14:31:24;;;;;;;11.30;5.60;;;;;;;7.58;73.09;97202.00;218155;1297;139572;-56
2021/12/24 14:36:27;;;;;;;11.70;6.30;;;;;;;7.63;73.16;97209.79;217806;1298;140176;-57
2021/12/24 14:41:32;;;;;;;10.80;6.50;;;;;;;7.61;73.09;97217.20;217762;1297;139225;-61
2021/12/24 14:46:35;;;;;;;11.20;6.60;;;;;;;7.58;73.11;97213.00;218418;1297;139490;-57
2021/12/24 14:51:39;;;;;;;11.40;6.40;;;;;;;7.57;73.08;97209.73;217738;1297;139380;-61
2021/12/24 14:56:41;;;;;;;11.20;6.70;;;;;;;7.56;72.98;97204.81;218956;1296;139955;-59
2021/12/24 15:01:49;;;;;;;144.00;87.90;;;;;;;7.56;73.14;97197.42;217636;1297;139703;-59
2021/12/24 15:06:53;;;;;;;18.60;9.50;;;;;;;7.65;73.60;97203.58;218584;1296;139838;-60
2021/12/24 15:11:56;;;;;;;12.90;6.40;;;;;;;7.72;73.23;97201.80;217681;1296;139889;-58
2021/12/24 15:17:00;;;;;;;10.20;6.50;;;;;;;7.68;72.95;97200.17;217498;1300;139111;-59
2021/12/24 15:22:04;;;;;;;10.10;6.40;;;;;;;7.64;72.92;97204.25;217601;1300;140108;-58
2021/12/24 15:27:07;;;;;;;11.00;6.10;;;;;;;7.62;73.12;97201.55;218302;1296;138709;-59
2021/12/24 15:32:10;;;;;;;9.20;5.40;;;;;;;7.60;73.14;97197.47;217938;1297;139642;-61
2021/12/24 15:37:13;;;;;;;14.00;6.60;;;;;;;7.60;73.10;97193.23;218662;1295;190576;-57
2021/12/24 15:42:18;;;;;;;10.90;6.20;;;;;;;7.64;73.14;97198.59;218220;1296;139580;-57
2021/12/24 15:47:21;;;;;;;11.60;6.50;;;;;;;7.66;73.14;97195.09;218144;1297;139375;-57
2021/12/24 15:52:24;;;;;;;12.00;5.90;;;;;;;7.71;73.18;97199.80;218287;1297;140063;-57
2021/12/24 15:57:27;;;;;;;11.50;6.40;;;;;;;7.87;73.79;97185.23;218005;1297;139884;-59
2021/12/24 16:02:30;;;;;;;11.40;6.70;;;;;;;7.88;73.35;97175.98;219124;1297;139405;-58
2021/12/24 16:07:34;;;;;;;12.80;5.80;;;;;;;7.81;73.00;97174.77;218045;1299;139461;-58
2021/12/24 16:12:37;;;;;;;11.30;6.20;;;;;;;7.72;72.87;97169.17;218125;1298;139242;-60
2021/12/24 16:17:40;;;;;;;11.50;6.00;;;;;;;7.64;72.64;97158.48;218059;1297;138980;-58
2021/12/24 16:22:43;;;;;;;15.00;6.70;;;;;;;7.55;72.59;97165.23;218602;1297;139373;-58
2021/12/24 16:27:47;;;;;;;9.70;5.90;;;;;;;7.52;72.59;97167.62;218420;1297;140391;-58
2021/12/24 16:32:49;;;;;;;10.40;6.40;;;;;;;7.48;72.49;97171.79;217607;1297;140066;-59
2021/12/24 16:37:53;;;;;;;12.80;6.30;;;;;;;7.45;72.69;97170.95;218082;1297;140529;-57
2021/12/24 16:42:59;;;;;;;10.50;6.00;;;;;;;7.49;72.76;97163.44;218398;1297;139819;-58
2021/12/24 16:48:03;;;;;;;11.90;6.10;;;;;;;7.54;72.77;97153.08;218459;1296;139416;-58
2021/12/24 16:53:07;;;;;;;10.10;5.30;;;;;;;7.60;72.99;97153.92;218828;1297;139290;-61
2021/12/24 16:58:11;;;;;;;8.20;4.60;;;;;;;7.68;72.72;97143.21;218719;1297;140014;-60
2021/12/24 17:03:15;;;;;;;7.40;4.40;;;;;;;7.76;72.71;97144.79;218073;1297;138980;-62
2021/12/24 17:08:18;;;;;;;7.10;4.10;;;;;;;7.88;72.62;97138.79;218503;1297;139026;-59
2021/12/24 17:13:21;;;;;;;8.70;5.70;;;;;;;7.97;72.49;97140.42;217671;1297;140287;-60
2021/12/24 17:18:24;;;;;;;6.70;3.60;;;;;;;8.13;72.29;97144.41;218269;1297;139980;-59
2021/12/24 17:23:27;;;;;;;8.30;3.80;;;;;;;8.15;71.87;97128.73;217849;1297;138905;-60
2021/12/24 17:28:30;;;;;;;6.60;4.10;;;;;;;8.17;71.73;97127.02;218271;1297;139080;-57
2021/12/24 17:33:33;;;;;;;8.50;4.60;;;;;;;8.24;71.58;97126.42;217755;1297;139149;-56
2021/12/24 17:38:37;;;;;;;7.40;4.10;;;;;;;8.29;71.28;97123.70;218692;1297;139500;-60
2021/12/24 17:43:40;;;;;;;7.50;3.80;;;;;;;8.26;70.98;97112.61;217723;1299;138983;-60
2021/12/24 17:48:44;;;;;;;6.70;3.80;;;;;;;8.25;70.79;97111.67;218217;1297;138982;-63
2021/12/24 17:53:47;;;;;;;7.70;3.00;;;;;;;8.27;70.72;97115.71;217602;1297;139320;-63
2021/12/24 17:58:50;;;;;;;7.20;4.20;;;;;;;8.28;70.57;97123.02;218263;1296;138792;-62
2021/12/24 18:03:53;;;;;;;6.40;3.60;;;;;;;8.33;70.55;97116.95;218109;1297;138849;-59
2021/12/24 18:08:59;;;;;;;7.60;3.20;;;;;;;8.35;70.33;97124.42;217981;1297;139149;-62
2021/12/24 18:14:02;;;;;;;5.60;3.40;;;;;;;8.36;70.05;97123.61;217954;1297;140274;-63
2021/12/24 18:19:05;;;;;;;6.40;4.00;;;;;;;8.37;69.97;97128.69;217919;1297;138380;-65
2021/12/24 18:24:08;;;;;;;82.40;56.60;;;;;;;8.37;69.86;97129.21;218658;1297;139434;-59
2021/12/24 18:29:12;;;;;;;7.40;4.10;;;;;;;8.51;70.65;97122.02;217879;1297;160547;-59
2021/12/24 18:34:16;;;;;;;7.80;4.20;;;;;;;8.67;70.04;97117.98;217981;1297;139053;-63
2021/12/24 18:39:19;;;;;;;5.80;3.60;;;;;;;8.60;69.57;97114.95;218160;1297;138884;-60
2021/12/24 18:44:22;;;;;;;6.20;3.30;;;;;;;8.53;69.23;97113.05;218082;1297;138568;-61
2021/12/24 18:49:25;;;;;;;5.00;2.80;;;;;;;8.48;69.23;97121.55;217779;1297;138540;-60
2021/12/24 18:54:28;;;;;;;6.50;3.30;;;;;;;8.48;68.87;97112.54;217939;1297;140103;-59
2021/12/24 18:59:31;;;;;;;5.40;3.20;;;;;;;8.50;68.88;97100.56;218605;1297;138792;-63
2021/12/24 19:04:34;;;;;;;5.80;3.10;;;;;;;8.49;68.68;97110.02;217770;1297;138431;-62
2021/12/24 19:09:37;;;;;;;4.90;3.00;;;;;;;8.50;68.58;97126.35;218642;1297;139054;-59
2021/12/24 19:14:40;;;;;;;6.30;2.70;;;;;;;8.52;68.41;97112.58;218514;1297;138769;-62
2021/12/24 19:19:45;;;;;;;38.20;24.70;;;;;;;8.57;68.24;97105.43;217931;1294;138807;-56
2021/12/24 19:24:49;;;;;;;6.00;3.90;;;;;;;8.75;68.71;97117.38;217601;1297;139857;-60
2021/12/24 19:29:52;;;;;;;3.90;2.90;;;;;;;8.81;68.08;97124.99;217679;1297;138787;-58
2021/12/24 19:34:55;;;;;;;6.70;3.30;;;;;;;8.78;67.70;97125.44;217805;1297;138978;-58
2021/12/24 19:39:58;;;;;;;7.90;4.70;;;;;;;8.74;67.45;97124.82;217771;1297;138684;-61
2021/12/24 19:45:01;;;;;;;5.20;3.10;;;;;;;8.72;67.48;97123.77;218341;1296;138773;-62
2021/12/24 19:50:08;;;;;;;5.70;3.00;;;;;;;8.72;67.24;97123.45;218746;1297;139229;-63
2021/12/24 19:55:13;;;;;;;4.70;3.20;;;;;;;8.70;67.14;97121.45;217651;1299;139227;-59
2021/12/24 20:00:27;;;;;;;7.70;3.60;;;;;;;8.70;67.04;97130.48;218322;1297;138806;-60
2021/12/24 20:05:31;;;;;;;5.30;3.20;;;;;;;8.69;66.88;97137.30;218222;1297;139110;-61
2021/12/24 20:10:40;;;;;;;7.40;3.70;;;;;;;8.68;66.89;97143.03;218589;1297;138679;-61
2021/12/24 20:15:43;;;;;;;6.40;3.10;;;;;;;8.67;66.73;97135.39;217992;1299;138299;-60
2021/12/24 20:20:46;;;;;;;6.90;4.00;;;;;;;8.67;66.76;97130.89;217526;1302;139404;-59
2021/12/24 20:25:49;;;;;;;6.10;3.20;;;;;;;8.73;66.66;97151.45;218370;1296;138871;-59
2021/12/24 20:30:52;;;;;;;7.50;4.10;;;;;;;8.77;66.86;97157.64;217732;1297;139208;-61
2021/12/24 20:35:55;;;;;;;7.20;3.00;;;;;;;8.88;66.55;97168.81;217566;1297;139130;-58
2021/12/24 20:40:58;;;;;;;5.20;3.00;;;;;;;8.78;66.18;97174.73;218440;1297;140548;-58
2021/12/24 20:46:04;;;;;;;8.50;3.60;;;;;;;8.72;66.23;97173.32;218175;1297;139119;-58
2021/12/24 20:51:09;;;;;;;;;;;;;;;8.71;66.22;97192.13;218497;1296;139407;-59
2021/12/24 20:56:12;;;;;;;5.70;3.10;;;;;;;8.77;66.14;97203.67;218408;1296;124880;-57
2021/12/24 21:01:16;;;;;;;5.90;3.30;;;;;;;8.77;66.08;97214.45;218883;1296;141420;-60
2021/12/24 21:06:20;;;;;;;6.50;3.70;;;;;;;8.76;65.85;97213.05;218352;1299;138681;-57
2021/12/24 21:11:23;;;;;;;5.90;3.30;;;;;;;8.76;65.85;97215.05;218360;1297;138437;-58
2021/12/24 21:16:26;;;;;;;7.20;3.70;;;;;;;8.73;65.99;97232.26;218815;1295;138540;-57
2021/12/24 21:21:29;;;;;;;6.90;3.70;;;;;;;8.67;65.93;97237.77;217565;1297;138986;-57
2021/12/24 21:26:33;;;;;;;7.40;4.20;;;;;;;8.60;66.09;97271.39;218374;1296;139633;-61
2021/12/24 21:31:37;;;;;;;6.30;3.20;;;;;;;8.53;66.19;97300.20;217729;1297;138808;-57
2021/12/24 21:36:40;;;;;;;4.40;1.80;;;;;;;8.31;65.45;97326.67;218291;1296;138769;-58
2021/12/24 21:41:44;;;;;;;2.20;1.40;;;;;;;8.00;64.99;97359.91;217979;1296;139222;-60
2021/12/24 21:46:47;;;;;;;3.90;2.10;;;;;;;7.39;64.13;97384.71;218618;1296;138603;-60
2021/12/24 21:51:50;;;;;;;2.40;1.40;;;;;;;6.84;64.43;97401.67;217765;1296;138674;-58
2021/12/24 21:56:55;;;;;;;3.20;1.90;;;;;;;6.39;64.44;97419.89;217748;1298;138730;-60
2021/12/24 22:01:58;;;;;;;3.80;1.80;;;;;;;6.07;64.61;97448.39;218139;1297;139410;-58
2021/12/24 22:12:25;;;;;;;5.00;2.70;;;;;;;5.31;65.48;97498.00;217971;1297;138556;-57
2021/12/24 22:17:28;;;;;;;3.50;2.00;;;;;;;5.06;65.81;97491.59;217914;1297;139102;-58
2021/12/24 22:22:31;;;;;;;3.50;1.70;;;;;;;4.90;66.28;97494.17;218477;1296;139054;-58
2021/12/24 22:27:39;;;;;;;2.60;1.50;;;;;;;4.76;66.51;97514.55;217954;1297;140833;-60
2021/12/24 22:32:43;;;;;;;2.70;1.20;;;;;;;4.59;66.15;97512.48;218080;1297;139839;-62
2021/12/24 22:37:47;;;;;;;2.70;1.30;;;;;;;4.45;66.45;97517.76;217704;1297;138988;-60
2021/12/24 22:42:50;;;;;;;3.70;1.70;;;;;;;4.36;66.80;97527.94;218061;1296;139178;-59
2021/12/24 22:47:54;;;;;;;2.50;1.50;;;;;;;4.23;66.59;97546.10;217942;1296;138911;-60
2021/12/24 22:52:59;;;;;;;5.10;1.70;;;;;;;4.11;67.06;97560.89;217885;1296;138548;-59
2021/12/24 22:58:07;;;;;;;3.00;1.60;;;;;;;3.98;67.06;97566.39;218157;1297;138781;-59
2021/12/24 23:03:22;;;;;;;3.40;1.70;;;;;;;3.98;67.22;97568.11;218870;1296;140504;-60
2021/12/24 23:08:27;;;;;;;3.10;1.60;;;;;;;3.98;67.22;97584.44;218612;1297;139116;-58
2021/12/24 23:13:34;;;;;;;6.70;3.40;;;;;;;4.01;67.53;97600.42;218334;1297;139017;-61
2021/12/24 23:18:38;;;;;;;3.20;1.80;;;;;;;4.00;67.58;97611.16;217568;1297;140436;-59
2021/12/24 23:23:41;;;;;;;4.20;1.80;;;;;;;3.96;67.31;97624.08;217840;1297;140032;-60
2021/12/24 23:28:44;;;;;;;4.60;2.20;;;;;;;3.87;67.40;97645.14;217792;1296;139111;-61
2021/12/24 23:33:47;;;;;;;4.50;2.40;;;;;;;3.77;67.38;97661.30;217767;1293;208014;-60
2021/12/24 23:38:50;;;;;;;4.10;2.40;;;;;;;3.70;67.53;97669.23;218140;1296;138699;-59
2021/12/24 23:43:59;;;;;;;3.80;2.00;;;;;;;3.64;67.46;97678.52;217676;1297;140402;-61
2021/12/24 23:49:05;;;;;;;5.30;2.40;;;;;;;3.59;67.87;97696.16;217673;1297;141286;-58
2021/12/24 23:54:10;;;;;;;4.90;2.40;;;;;;;3.55;67.91;97699.88;217966;1297;139488;-60
2021/12/24 23:59:15;;;;;;;5.20;2.60;;;;;;;3.49;68.17;97700.73;218508;1296;138862;-62
